首页
METAR-TAF:

METAR-TAF

机场 :

阿拉木图国际机场

阿拉木圖, 哈萨克斯坦

纬度: 43-14N, 经度: 076-56E, 海拔: 847米

当前天气观测

该预报发布于38分钟前的14:00 UTC
风速2节,风向多变
温度 7°C
湿度 61%
气压 1024 hPa
能見度: 1600
散云层高于20000英尺

METAR: UAAA 231400Z VRB01MPS 1600 R05R/P2000U FU SCT200 07/00 Q1024 R05R/CLRD65 TEMPO 1200 FU

时间: 20:38 (14:38 UTC)

预报

该预报发布于3小时和38分钟前的11:00 UTC
预报有效从23日的 12点(UTC)到 24日的 12点(UTC)
风速10节,风向南转南东
能見度: 5000
散云层高于5000英尺, 积雨云.
多云层高于10000英尺
轻雾, 烟
短暂存在
从 23日的 12点(UTC)到 23日的 20点(UTC)
能見度: 1200
成为
从 24日的 02点(UTC)到 24日的 03点(UTC)
风速10节,风向东北
能见度10公里或以上

TAF: UAAA 231100Z 2312/2412 16005MPS 5000 BR FU SCT050CB BKN100 TX16/2409Z TN04/2401Z TEMPO 2312/2320 1200 BECMG 2402/2403 04005MPS 9999 NSW

超过4000个机场的气象观测和天气预报(METAR&TAF报告)。

可查询的气象台以黄色和红色小点在地图上表示。

将鼠标移到小点上方,可查看气象台名称。

然后点击查看天气观测和预报。

如需切换地图:点击带黑十字的绿色按钮放大地图;点击带横线的绿色按钮缩小地图;或者点击绿色箭头查看邻近地区的地图。


METAR-TAF: